Time;durP1;ratioP1;P1;durP2;ratioP2;P2;SDS_P1;SDS_P2;PMS_P1;PMS_P2;Temp;Humidity;BMP_temperature;BMP_pressure;BME280_temperature;BME280_humidity;BME280_pressure;Samples;Min_cycle;Max_cycle;Signal;HPM_P1;HPM_P2
2022/09/08 00:00:37;;;;;;;5.80;3.42;;;;;;;27.82;57.24;98487.94;2094000;28;20044;-52
2022/09/08 00:01:38;;;;;;;10.35;3.05;;;;;;;27.85;57.08;98484.69;2093061;28;20481;-54
2022/09/08 00:02:39;;;;;;;12.82;3.80;;;;;;;27.87;56.95;98485.25;2090809;28;20119;-53
2022/09/08 00:03:41;;;;;;;8.50;3.15;;;;;;;27.87;56.96;98477.06;2090971;28;20069;-50
2022/09/08 00:04:42;;;;;;;11.75;3.75;;;;;;;27.88;57.01;98478.69;2091177;28;20047;-54
2022/09/08 00:05:49;;;;;;;7.65;2.90;;;;;;;27.87;56.96;98482.53;2092344;28;20044;-50
2022/09/08 00:06:50;;;;;;;11.20;3.47;;;;;;;27.88;57.03;98470.53;2094189;28;20097;-53
2022/09/08 00:07:54;;;;;;;11.38;3.97;;;;;;;27.87;57.43;98466.16;2094814;28;20055;-50
2022/09/08 00:08:58;;;;;;;11.10;3.97;;;;;;;27.84;57.48;98455.81;2094186;28;20101;-53
2022/09/08 00:09:59;;;;;;;6.57;2.85;;;;;;;27.81;57.44;98462.59;2093329;28;20052;-50
2022/09/08 00:11:05;;;;;;;7.25;3.50;;;;;;;27.81;57.51;98459.06;2096135;28;20036;-52
2022/09/08 00:12:07;;;;;;;11.95;3.90;;;;;;;27.80;57.40;98458.25;2092985;28;20040;-54
2022/09/08 00:13:10;;;;;;;11.65;3.33;;;;;;;27.79;58.17;98463.94;2088905;28;20511;-53
2022/09/08 00:14:11;;;;;;;7.28;2.92;;;;;;;27.79;57.87;98463.94;2092592;28;20051;-54
2022/09/08 00:15:15;;;;;;;9.70;3.10;;;;;;;27.80;57.78;98460.13;2093465;28;20059;-52
2022/09/08 00:16:18;;;;;;;11.93;4.97;;;;;;;27.80;57.53;98455.53;2090883;28;20117;-51
2022/09/08 00:17:20;;;;;;;12.88;3.97;;;;;;;27.81;57.58;98454.44;2088985;28;20051;-53
2022/09/08 00:18:22;;;;;;;8.20;4.85;;;;;;;27.80;57.85;98451.97;2083789;28;20083;-54
2022/09/08 00:19:25;;;;;;;13.20;4.15;;;;;;;27.82;57.71;98456.06;2085929;28;20049;-54
2022/09/08 00:20:26;;;;;;;10.80;3.65;;;;;;;27.81;57.75;98459.06;2085287;28;20060;-54
2022/09/08 00:21:28;;;;;;;11.45;4.38;;;;;;;27.80;58.14;98446.50;2080882;28;20060;-51
2022/09/08 00:22:29;;;;;;;12.70;3.83;;;;;;;27.81;58.21;98457.16;2086997;28;20451;-53
2022/09/08 00:23:31;;;;;;;11.00;4.20;;;;;;;27.79;58.38;98459.31;2086696;28;20041;-49
2022/09/08 00:24:33;;;;;;;12.60;3.72;;;;;;;27.78;58.61;98446.75;2087833;28;20102;-53
2022/09/08 00:25:35;;;;;;;13.70;4.57;;;;;;;27.77;58.44;98456.00;2086526;28;20057;-50
2022/09/08 00:26:35;;;;;;;10.93;3.92;;;;;;;27.78;58.28;98452.22;2087637;28;20060;-52
2022/09/08 00:27:37;;;;;;;10.65;4.30;;;;;;;27.78;58.54;98445.97;2078877;28;20733;-49
2022/09/08 00:28:38;;;;;;;8.43;3.88;;;;;;;27.77;58.98;98447.84;2089245;28;20052;-50
2022/09/08 00:29:39;;;;;;;13.07;4.03;;;;;;;27.78;58.35;98446.75;2087682;28;20477;-53
2022/09/08 00:30:41;;;;;;;14.80;4.65;;;;;;;27.77;58.55;98455.19;2092047;28;20048;-52
2022/09/08 00:31:44;;;;;;;13.18;3.70;;;;;;;27.76;58.59;98456.28;2086651;28;20049;-54
2022/09/08 00:32:44;;;;;;;12.27;4.28;;;;;;;27.74;58.91;98450.28;2085515;28;20144;-53
2022/09/08 00:33:47;;;;;;;8.63;3.60;;;;;;;27.73;59.02;98457.66;2085024;28;20091;-50
2022/09/08 00:34:47;;;;;;;12.13;3.30;;;;;;;27.74;58.83;98456.56;2090117;28;20055;-53
2022/09/08 00:35:51;;;;;;;7.18;3.63;;;;;;;27.73;59.13;98454.91;2084908;28;20509;-54
2022/09/08 00:36:53;;;;;;;12.23;3.85;;;;;;;27.74;58.62;98461.19;2091860;28;20625;-53
2022/09/08 00:37:55;;;;;;;9.68;4.28;;;;;;;27.75;58.66;98463.66;2084681;28;20049;-52
2022/09/08 00:38:57;;;;;;;7.50;3.97;;;;;;;27.75;58.84;98463.66;2092117;28;20732;-50
2022/09/08 00:39:59;;;;;;;9.43;3.13;;;;;;;27.79;58.49;98463.94;2079499;28;20090;-52
2022/09/08 00:41:00;;;;;;;11.02;3.90;;;;;;;27.77;58.73;98460.66;2083143;28;21121;-51
2022/09/08 00:42:01;;;;;;;15.10;3.25;;;;;;;27.76;58.70;98453.56;2086237;28;20139;-50
2022/09/08 00:43:04;;;;;;;13.50;4.30;;;;;;;27.79;58.63;98453.03;2091236;28;20056;-52
2022/09/08 00:44:41;;;;;;;12.40;4.28;;;;;;;27.73;58.80;98460.38;2083019;28;20133;-49
2022/09/08 00:45:47;;;;;;;9.82;4.65;;;;;;;27.70;58.73;98460.91;2082623;28;20077;-50
2022/09/08 00:46:50;;;;;;;11.77;3.80;;;;;;;27.72;58.85;98456.03;2082778;28;20167;-49
2022/09/08 00:47:56;;;;;;;10.75;3.65;;;;;;;27.73;58.82;98468.53;2087599;28;20045;-50
2022/09/08 00:49:04;;;;;;;6.38;2.72;;;;;;;27.74;58.83;98467.44;2086324;28;20052;-53
2022/09/08 00:50:09;;;;;;;12.00;3.78;;;;;;;27.78;58.68;98473.19;2082091;28;20053;-52
2022/09/08 00:51:11;;;;;;;11.85;3.75;;;;;;;27.79;58.52;98464.78;2088396;28;20052;-52
2022/09/08 00:52:12;;;;;;;10.48;3.55;;;;;;;27.81;58.22;98473.50;2089932;28;21035;-52
2022/09/08 00:53:17;;;;;;;16.55;4.07;;;;;;;27.80;57.88;98471.88;2084220;28;20053;-53
2022/09/08 00:54:19;;;;;;;13.52;3.72;;;;;;;27.79;58.26;98472.94;2093906;28;20555;-52
2022/09/08 00:55:21;;;;;;;9.43;3.28;;;;;;;27.82;57.99;98468.88;2092127;28;20382;-52
2022/09/08 00:56:23;;;;;;;7.55;3.03;;;;;;;27.83;57.52;98471.34;2093455;28;20053;-49
2022/09/08 00:57:24;;;;;;;6.65;3.08;;;;;;;27.87;57.58;98470.81;2092218;28;20059;-53
2022/09/08 00:58:26;;;;;;;10.20;3.58;;;;;;;27.85;58.06;98471.06;2096211;28;20056;-52
2022/09/08 00:59:28;;;;;;;9.32;4.15;;;;;;;27.85;57.66;98474.59;2093612;28;20051;-56
2022/09/08 01:00:28;;;;;;;6.28;2.75;;;;;;;27.83;57.63;98474.06;2090373;28;20579;-52
2022/09/08 01:01:34;;;;;;;6.38;3.17;;;;;;;27.83;57.58;98471.34;2092949;28;20098;-51
2022/09/08 01:02:34;;;;;;;9.10;3.45;;;;;;;27.82;57.54;98477.88;2095078;28;20049;-52
2022/09/08 01:03:38;;;;;;;11.27;3.58;;;;;;;27.83;57.81;98470.50;2091274;28;20098;-52
2022/09/08 01:04:39;;;;;;;6.80;3.13;;;;;;;27.80;57.92;98460.97;2093191;28;20052;-50
2022/09/08 01:05:49;;;;;;;7.97;3.70;;;;;;;27.82;57.63;98463.44;2094127;28;20113;-53
2022/09/08 01:12:46;;;;;;;9.68;3.80;;;;;;;27.74;57.92;98470.16;2089850;28;20044;-55
2022/09/08 01:13:47;;;;;;;7.90;3.63;;;;;;;27.75;58.05;98471.00;2088001;28;20203;-53
2022/09/08 01:14:51;;;;;;;8.48;3.85;;;;;;;27.74;58.05;98477.53;2087424;28;20596;-55
2022/09/08 01:15:53;;;;;;;8.80;3.65;;;;;;;27.72;58.39;98475.09;2086556;28;20694;-52
2022/09/08 01:16:56;;;;;;;8.05;3.45;;;;;;;27.75;58.23;98476.44;2082560;28;20064;-53
2022/09/08 01:17:58;;;;;;;11.63;4.03;;;;;;;27.75;58.24;98471.84;2085650;28;20735;-55
2022/09/08 01:19:00;;;;;;;9.13;4.00;;;;;;;27.76;58.23;98470.72;2086743;28;20045;-54
2022/09/08 01:20:03;;;;;;;8.88;3.45;;;;;;;27.73;58.62;98459.56;2083335;28;20056;-53
2022/09/08 01:21:13;;;;;;;7.68;3.28;;;;;;;27.72;58.62;98447.84;2086482;28;20048;-50
2022/09/08 01:22:38;;;;;;;9.77;4.53;;;;;;;27.70;58.52;98446.47;2088117;28;20049;-50
2022/09/08 01:23:58;;;;;;;15.93;3.75;;;;;;;27.70;58.84;98443.75;2085774;28;20426;-50
2022/09/08 01:25:16;;;;;;;8.05;3.60;;;;;;;27.67;59.08;98442.38;2083778;28;20045;-51
2022/09/08 01:26:37;;;;;;;14.85;4.88;;;;;;;27.65;59.17;98444.53;2091535;28;20120;-50
2022/09/08 01:27:40;;;;;;;5.38;3.15;;;;;;;27.66;59.21;98437.19;2086720;28;20085;-53
2022/09/08 01:28:47;;;;;;;12.20;4.15;;;;;;;27.68;59.14;98433.09;2087189;28;20697;-50
2022/09/08 01:29:50;;;;;;;9.80;3.28;;;;;;;27.70;59.43;98427.41;2090099;28;20059;-54
2022/09/08 01:30:54;;;;;;;7.22;3.38;;;;;;;27.67;59.44;98417.84;2093787;28;20040;-50
2022/09/08 01:31:57;;;;;;;12.20;3.75;;;;;;;27.69;59.02;98410.22;2094793;28;20417;-50
2022/09/08 01:32:58;;;;;;;9.57;4.40;;;;;;;27.67;59.38;98401.50;2093828;28;20453;-51
2022/09/08 01:34:00;;;;;;;7.85;3.00;;;;;;;27.66;59.33;98404.47;2093772;28;20044;-53
2022/09/08 01:35:03;;;;;;;11.82;3.70;;;;;;;27.66;59.38;98405.31;2094818;28;20076;-54
2022/09/08 01:36:08;;;;;;;11.77;3.72;;;;;;;27.65;59.68;98408.31;2096337;28;20052;-51
2022/09/08 01:37:10;;;;;;;8.70;3.10;;;;;;;27.63;59.55;98419.47;2093497;28;20467;-50
2022/09/08 01:38:11;;;;;;;8.07;3.83;;;;;;;27.65;59.58;98424.66;2091251;28;20048;-53
2022/09/08 01:39:13;;;;;;;11.30;4.03;;;;;;;27.64;59.55;98423.84;2093051;28;20052;-51
2022/09/08 01:40:14;;;;;;;13.23;3.28;;;;;;;27.67;59.18;98428.75;2094989;28;20097;-51
2022/09/08 01:41:16;;;;;;;10.27;3.75;;;;;;;27.67;59.29;98422.50;2092900;28;20044;-52
2022/09/08 01:42:16;;;;;;;11.48;3.33;;;;;;;27.68;58.88;98418.66;2095738;28;20044;-52
2022/09/08 01:43:19;;;;;;;9.00;3.83;;;;;;;27.72;58.56;98414.31;2084228;28;20051;-51
2022/09/08 01:44:20;;;;;;;10.40;3.40;;;;;;;27.72;58.81;98408.84;2089340;28;20052;-53
2022/09/08 01:45:23;;;;;;;11.80;4.10;;;;;;;27.70;58.78;98406.41;2091670;28;20514;-55
2022/09/08 01:46:23;;;;;;;10.93;4.35;;;;;;;27.69;58.95;98403.94;2089268;28;20049;-53
2022/09/08 01:47:25;;;;;;;8.85;3.60;;;;;;;27.67;59.21;98397.97;2093519;28;20144;-54
2022/09/08 01:48:26;;;;;;;11.60;4.88;;;;;;;27.65;59.32;98400.94;2093770;28;20067;-54
2022/09/08 01:49:28;;;;;;;6.82;3.53;;;;;;;27.65;59.25;98395.50;2083706;28;20072;-54
2022/09/08 01:50:29;;;;;;;7.82;4.00;;;;;;;27.65;59.26;98394.69;2090974;28;20158;-53
2022/09/08 01:51:30;;;;;;;14.00;4.00;;;;;;;27.67;59.06;98398.78;2090392;28;21122;-53
2022/09/08 01:52:31;;;;;;;9.18;3.13;;;;;;;27.68;59.08;98396.88;2083617;28;20288;-51
2022/09/08 01:53:33;;;;;;;12.35;3.70;;;;;;;27.70;58.72;98420.03;2085916;28;20056;-51
2022/09/08 01:54:34;;;;;;;7.05;3.28;;;;;;;27.67;59.19;98428.75;2084001;28;20048;-52
2022/09/08 01:55:36;;;;;;;8.27;3.83;;;;;;;27.67;58.77;98431.47;2083488;28;20688;-53
2022/09/08 01:56:37;;;;;;;12.88;5.30;;;;;;;27.69;58.74;98432.00;2086468;28;20064;-50
2022/09/08 01:57:38;;;;;;;11.73;4.60;;;;;;;27.69;58.49;98426.56;2086527;28;20107;-50
2022/09/08 01:58:40;;;;;;;5.82;3.10;;;;;;;27.70;58.46;98405.59;2085198;28;20053;-50
2022/09/08 01:59:42;;;;;;;5.22;2.97;;;;;;;27.70;58.57;98391.97;2087761;28;20548;-52
2022/09/08 02:00:43;;;;;;;10.10;3.50;;;;;;;27.69;58.55;98379.41;2083452;28;20623;-50
2022/09/08 02:01:44;;;;;;;8.05;3.72;;;;;;;27.70;58.53;98391.97;2083816;28;20084;-50
2022/09/08 02:02:45;;;;;;;10.68;3.95;;;;;;;27.72;58.36;98397.94;2073698;28;20114;-50
2022/09/08 02:03:47;;;;;;;10.75;3.38;;;;;;;27.70;58.74;98409.13;2082361;28;20048;-52
2022/09/08 02:04:48;;;;;;;8.63;2.95;;;;;;;27.70;58.28;98411.88;2086204;28;20052;-53
2022/09/08 02:05:50;;;;;;;8.88;3.72;;;;;;;27.69;58.90;98403.94;2087686;28;20044;-51
2022/09/08 02:06:51;;;;;;;9.15;3.72;;;;;;;27.67;58.71;98404.22;2085244;28;20117;-54
2022/09/08 02:07:53;;;;;;;7.60;2.97;;;;;;;27.67;58.71;98390.59;2084507;28;20037;-54
2022/09/08 02:08:55;;;;;;;8.25;4.05;;;;;;;27.71;58.89;98399.88;2080225;28;20059;-54
2022/09/08 02:09:57;;;;;;;11.25;3.70;;;;;;;27.68;58.96;98403.13;2082086;28;20056;-54
2022/09/08 02:10:59;;;;;;;12.95;4.93;;;;;;;27.68;58.99;98410.50;2084482;28;20072;-53
2022/09/08 02:12:01;;;;;;;11.55;3.90;;;;;;;27.67;58.69;98400.69;2085491;28;20395;-50
2022/09/08 02:13:02;;;;;;;9.02;4.40;;;;;;;27.66;58.84;98394.41;2086123;28;20045;-54
2022/09/08 02:14:05;;;;;;;15.02;3.30;;;;;;;27.63;59.13;98392.22;2088951;28;20054;-55
2022/09/08 02:15:08;;;;;;;7.43;3.75;;;;;;;27.60;59.13;98399.03;2084808;28;20753;-54
2022/09/08 02:16:11;;;;;;;8.90;3.55;;;;;;;27.62;58.91;98406.94;2090783;28;20060;-53
2022/09/08 02:17:12;;;;;;;8.32;3.50;;;;;;;27.61;59.16;98405.31;2091004;28;20075;-54
2022/09/08 02:18:13;;;;;;;7.22;3.30;;;;;;;27.62;59.03;98415.09;2093366;28;20064;-53
2022/09/08 02:19:15;;;;;;;10.70;4.05;;;;;;;27.66;58.94;98421.66;2091513;28;20409;-54
2022/09/08 02:20:16;;;;;;;12.82;3.58;;;;;;;27.64;58.76;98434.75;2094471;28;20044;-53
2022/09/08 02:21:19;;;;;;;14.63;3.55;;;;;;;27.64;58.54;98434.75;2092044;28;20044;-50
2022/09/08 02:22:20;;;;;;;10.95;4.10;;;;;;;27.61;58.91;98425.19;2090141;28;20044;-52
2022/09/08 02:23:21;;;;;;;5.70;3.15;;;;;;;27.62;58.74;98423.28;2094264;28;20052;-52
2022/09/08 02:24:23;;;;;;;8.82;3.63;;;;;;;27.65;58.73;98420.03;2085127;28;20064;-54
2022/09/08 02:25:24;;;;;;;6.45;3.38;;;;;;;27.70;58.38;98420.03;2085426;28;20084;-55
2022/09/08 02:26:28;;;;;;;6.22;3.40;;;;;;;27.70;58.06;98414.59;2088268;28;20427;-51
2022/09/08 02:27:29;;;;;;;7.75;3.25;;;;;;;27.69;58.05;98404.75;2085327;28;20556;-50
2022/09/08 02:28:31;;;;;;;11.25;3.22;;;;;;;27.68;57.72;98403.13;2091946;28;20040;-52
2022/09/08 02:29:33;;;;;;;8.77;3.05;;;;;;;27.73;57.89;98402.34;2095612;28;20044;-54
2022/09/08 02:30:36;;;;;;;7.22;3.50;;;;;;;27.74;57.80;98406.69;2091793;28;20056;-53
2022/09/08 02:31:36;;;;;;;7.90;3.30;;;;;;;27.72;57.99;98409.69;2083569;28;20060;-53
2022/09/08 02:32:39;;;;;;;12.93;4.07;;;;;;;27.72;57.99;98417.88;2084977;28;20062;-52
2022/09/08 02:33:41;;;;;;;10.00;3.17;;;;;;;27.70;58.13;98427.41;2079730;28;20144;-55
2022/09/08 02:34:42;;;;;;;8.73;3.42;;;;;;;27.67;58.53;98422.50;2089298;28;20040;-53
2022/09/08 02:35:43;;;;;;;11.65;4.07;;;;;;;27.66;58.53;98418.91;2089730;28;20625;-53
2022/09/08 02:36:45;;;;;;;8.30;3.33;;;;;;;27.65;58.27;98411.84;2090334;28;20052;-54
2022/09/08 02:37:46;;;;;;;6.60;3.45;;;;;;;27.67;58.21;98401.50;2089707;28;20052;-50
2022/09/08 02:38:49;;;;;;;7.80;3.17;;;;;;;27.71;57.76;98399.06;2090780;28;20102;-49
2022/09/08 02:39:50;;;;;;;4.05;2.58;;;;;;;27.72;57.57;98385.19;2085031;28;20041;-53
2022/09/08 02:40:52;;;;;;;9.90;4.35;;;;;;;27.73;57.74;98386.81;2084465;28;20179;-53
2022/09/08 02:41:53;;;;;;;7.93;3.70;;;;;;;27.73;57.76;98388.72;2086345;28;20040;-55
2022/09/08 02:42:55;;;;;;;8.90;3.78;;;;;;;27.72;57.90;98381.59;2085045;28;20053;-54
2022/09/08 02:43:56;;;;;;;6.93;2.78;;;;;;;27.69;58.02;98388.41;2087607;28;20048;-51
2022/09/08 02:44:59;;;;;;;9.82;3.33;;;;;;;27.69;58.09;98391.13;2086223;28;20380;-53
2022/09/08 02:46:05;;;;;;;8.88;3.60;;;;;;;27.68;57.94;98391.41;2085352;28;20045;-53
2022/09/08 02:47:07;;;;;;;10.77;3.75;;;;;;;27.66;58.24;98388.94;2082903;28;20049;-53
2022/09/08 02:48:08;;;;;;;5.22;3.05;;;;;;;27.67;58.12;98397.97;2092314;28;20131;-52
2022/09/08 02:49:11;;;;;;;10.75;3.65;;;;;;;27.68;58.07;98402.31;2096692;28;20051;-52
2022/09/08 02:50:11;;;;;;;9.88;3.58;;;;;;;27.68;58.13;98405.03;2093417;28;20052;-53
2022/09/08 02:51:17;;;;;;;14.85;3.72;;;;;;;27.69;58.17;98406.66;2092283;28;20475;-49
2022/09/08 02:52:17;;;;;;;7.80;3.38;;;;;;;27.69;57.93;98414.84;2093233;28;20123;-49
2022/09/08 02:53:19;;;;;;;3.92;3.17;;;;;;;27.70;57.84;98409.13;2086118;28;20053;-54
2022/09/08 02:54:20;;;;;;;6.55;3.22;;;;;;;27.69;58.05;98410.22;2083524;28;20114;-50
2022/09/08 02:55:23;;;;;;;10.20;3.33;;;;;;;27.70;57.99;98411.88;2083104;28;20049;-49
2022/09/08 02:56:24;;;;;;;9.63;3.38;;;;;;;27.73;57.85;98405.06;2084206;28;20057;-52
2022/09/08 02:57:26;;;;;;;7.32;2.95;;;;;;;27.72;58.05;98411.56;2086600;28;20139;-52
2022/09/08 02:58:27;;;;;;;17.85;4.90;;;;;;;27.72;57.77;98426.03;2090118;28;20049;-52
2022/09/08 02:59:29;;;;;;;6.07;2.85;;;;;;;27.73;57.75;98419.50;2082674;28;20549;-51
2022/09/08 03:00:32;;;;;;;8.63;2.80;;;;;;;27.73;57.66;98416.78;2089661;28;20060;-52
2022/09/08 03:01:34;;;;;;;9.15;3.28;;;;;;;27.72;57.80;98406.13;2094868;28;20486;-48
2022/09/08 03:02:34;;;;;;;11.93;3.60;;;;;;;27.72;57.77;98406.97;2085416;28;20037;-53
2022/09/08 03:03:37;;;;;;;7.78;3.22;;;;;;;27.72;57.93;98397.94;2085847;28;20132;-50
2022/09/08 03:04:37;;;;;;;12.35;3.83;;;;;;;27.71;57.77;98397.13;2087612;28;20055;-53
2022/09/08 03:05:39;;;;;;;7.70;3.92;;;;;;;27.73;57.79;98396.88;2087374;28;20160;-49
2022/09/08 03:06:40;;;;;;;5.35;3.22;;;;;;;27.74;57.68;98399.31;2089229;28;20100;-52
2022/09/08 03:07:41;;;;;;;10.40;3.83;;;;;;;27.72;57.50;98398.78;2093106;28;20043;-50
2022/09/08 03:08:42;;;;;;;8.10;3.85;;;;;;;27.73;57.67;98397.69;2090849;28;20509;-52
2022/09/08 03:09:44;;;;;;;10.15;3.95;;;;;;;27.71;57.63;98388.97;2086197;28;20044;-49
2022/09/08 03:10:44;;;;;;;9.30;3.20;;;;;;;27.72;57.52;98387.06;2084983;28;20453;-51
2022/09/08 03:11:46;;;;;;;8.25;3.55;;;;;;;27.68;57.56;98384.06;2083482;28;20052;-50
2022/09/08 03:12:47;;;;;;;7.05;4.43;;;;;;;27.69;57.69;98388.41;2091088;28;20086;-48
2022/09/08 03:13:48;;;;;;;8.23;4.25;;;;;;;27.70;57.74;98390.06;2087745;28;20558;-49
2022/09/08 03:14:50;;;;;;;5.97;3.00;;;;;;;27.72;57.92;98389.78;2083845;28;20060;-51
2022/09/08 03:15:53;;;;;;;11.95;3.03;;;;;;;27.71;57.52;98388.16;2083364;28;20044;-53
2022/09/08 03:16:53;;;;;;;7.63;3.35;;;;;;;27.72;57.59;98393.34;2082241;28;20072;-53
2022/09/08 03:17:55;;;;;;;9.18;3.60;;;;;;;27.72;57.39;98392.50;2089075;28;20522;-50
2022/09/08 03:18:57;;;;;;;11.30;3.17;;;;;;;27.70;57.70;98373.72;2085206;28;20048;-56
2022/09/08 03:19:59;;;;;;;9.00;3.25;;;;;;;27.69;57.55;98371.25;2084932;28;20045;-51
2022/09/08 03:21:00;;;;;;;6.38;3.30;;;;;;;27.71;57.53;98374.53;2086212;28;20102;-53
2022/09/08 03:22:02;;;;;;;11.40;3.83;;;;;;;27.70;57.50;98372.91;2093910;28;20048;-52
2022/09/08 03:23:03;;;;;;;7.22;2.88;;;;;;;27.71;57.21;98375.34;2092719;28;20037;-52
2022/09/08 03:24:05;;;;;;;8.93;3.72;;;;;;;27.72;57.36;98377.00;2086624;28;20048;-51
2022/09/08 03:25:07;;;;;;;13.32;3.08;;;;;;;27.72;57.33;98368.81;2095672;28;20097;-53
2022/09/08 03:26:12;;;;;;;11.52;3.83;;;;;;;27.71;57.47;98358.19;2086632;28;20589;-53
2022/09/08 03:27:13;;;;;;;10.27;3.92;;;;;;;27.70;57.49;98357.38;2087735;28;20060;-50
2022/09/08 03:28:20;;;;;;;8.40;3.28;;;;;;;27.70;57.62;98341.03;2095726;28;20051;-53
2022/09/08 03:29:20;;;;;;;8.05;3.78;;;;;;;27.70;57.37;98341.03;2087992;28;20101;-53
2022/09/08 03:30:22;;;;;;;5.95;3.40;;;;;;;27.69;57.33;98338.56;2084835;28;20499;-52
2022/09/08 03:31:25;;;;;;;8.32;3.35;;;;;;;27.70;57.34;98338.28;2081730;28;20052;-53
2022/09/08 03:32:27;;;;;;;10.88;4.90;;;;;;;27.71;57.46;98339.09;2084155;28;20431;-49
2022/09/08 03:33:28;;;;;;;6.57;3.08;;;;;;;27.73;57.20;98345.13;2091368;28;20386;-53
2022/09/08 03:34:30;;;;;;;7.43;3.05;;;;;;;27.71;57.49;98347.28;2092322;28;20056;-51
2022/09/08 03:35:31;;;;;;;7.82;3.60;;;;;;;27.70;57.48;98351.91;2093475;28;20049;-50
2022/09/08 03:36:33;;;;;;;6.72;3.20;;;;;;;27.69;57.42;98355.72;2093225;28;20055;-53
2022/09/08 03:37:34;;;;;;;4.97;2.88;;;;;;;27.71;57.52;98364.44;2093635;28;20048;-50
2022/09/08 03:38:36;;;;;;;8.57;3.08;;;;;;;27.71;57.24;98369.91;2082803;28;20036;-53
2022/09/08 03:39:37;;;;;;;5.78;2.55;;;;;;;27.71;57.54;98369.91;2091759;27;20055;-53
2022/09/08 03:40:41;;;;;;;12.75;5.20;;;;;;;27.72;57.22;98374.28;2092527;27;20044;-52
2022/09/08 03:41:42;;;;;;;10.57;3.17;;;;;;;27.73;57.14;98375.91;2090879;28;20048;-56
2022/09/08 03:42:45;;;;;;;10.43;3.67;;;;;;;27.71;57.04;98375.34;2091696;28;20129;-52
2022/09/08 03:43:48;;;;;;;7.10;3.17;;;;;;;27.72;57.13;98379.72;2094942;28;20040;-55
2022/09/08 03:44:50;;;;;;;12.45;2.70;;;;;;;27.71;57.06;98383.53;2085730;28;22106;-48
2022/09/08 03:45:51;;;;;;;9.25;3.85;;;;;;;27.70;57.03;98384.63;2082293;28;20057;-56
2022/09/08 03:46:54;;;;;;;5.57;3.22;;;;;;;27.69;57.20;98372.06;2080244;28;20064;-56
2022/09/08 03:47:55;;;;;;;7.80;3.15;;;;;;;27.69;57.46;98374.78;2092948;28;20526;-49
2022/09/08 03:48:56;;;;;;;5.93;3.33;;;;;;;27.70;57.45;98387.34;2096776;28;20044;-51
2022/09/08 03:49:57;;;;;;;6.30;2.55;;;;;;;27.70;57.18;98390.06;2084732;28;20052;-54
2022/09/08 03:51:08;;;;;;;11.00;3.72;;;;;;;27.68;57.20;98402.31;2088954;28;20692;-53
2022/09/08 03:52:09;;;;;;;6.72;2.50;;;;;;;27.66;57.35;98416.19;2092896;28;20160;-53
2022/09/08 03:53:11;;;;;;;7.47;3.30;;;;;;;27.67;57.41;98427.94;2085229;28;20049;-55
2022/09/08 03:55:32;;;;;;;5.45;2.90;;;;;;;27.67;57.30;98452.47;2084984;28;20488;-55
2022/09/08 03:56:32;;;;;;;6.40;2.83;;;;;;;27.68;57.25;98457.63;2089182;28;20049;-58
2022/09/08 03:57:34;;;;;;;5.25;2.78;;;;;;;27.69;57.18;98461.16;2089072;28;20139;-53
2022/09/08 03:58:35;;;;;;;8.15;3.17;;;;;;;27.69;57.32;98469.34;2091528;28;20641;-55
2022/09/08 03:59:37;;;;;;;6.93;2.67;;;;;;;27.68;57.20;98467.72;2087055;28;20060;-52
2022/09/08 04:00:41;;;;;;;5.32;2.85;;;;;;;27.69;57.06;98459.25;2090321;28;21925;-53
2022/09/08 04:01:43;;;;;;;5.57;2.40;;;;;;;27.69;57.28;98453.81;2088133;28;20669;-54
2022/09/08 04:02:46;;;;;;;7.35;2.85;;;;;;;27.69;57.19;98453.00;2089073;28;20052;-51
2022/09/08 04:03:46;;;;;;;4.00;3.13;;;;;;;27.66;57.33;98442.63;2091281;28;20105;-54
2022/09/08 04:04:49;;;;;;;7.75;2.63;;;;;;;27.67;57.18;98447.81;2087328;28;20052;-58
2022/09/08 04:05:50;;;;;;;3.90;3.15;;;;;;;27.65;57.44;98450.00;2089110;28;20056;-54
2022/09/08 04:06:52;;;;;;;6.88;2.83;;;;;;;27.67;57.66;98461.44;2085729;28;20594;-57
2022/09/08 04:07:53;;;;;;;12.02;4.03;;;;;;;27.66;57.63;98459.78;2088088;28;20045;-56
2022/09/08 04:08:54;;;;;;;13.43;3.60;;;;;;;27.67;57.63;98468.81;2084687;28;20140;-58
2022/09/08 04:09:56;;;;;;;9.30;3.20;;;;;;;27.65;57.59;98460.88;2080996;28;20538;-51
2022/09/08 04:10:58;;;;;;;11.90;3.38;;;;;;;27.66;57.55;98459.78;2088218;28;20045;-51
2022/09/08 04:11:59;;;;;;;8.43;2.47;;;;;;;27.69;57.21;98451.06;2087460;28;20689;-53
2022/09/08 04:13:01;;;;;;;5.78;2.97;;;;;;;27.69;57.30;98445.63;2091211;28;20055;-53
2022/09/08 04:14:02;;;;;;;4.68;2.55;;;;;;;27.69;57.41;98442.91;2093044;28;20052;-53
2022/09/08 04:15:05;;;;;;;9.25;4.38;;;;;;;27.70;57.31;98443.75;2090425;28;20072;-51
2022/09/08 04:16:06;;;;;;;8.90;3.92;;;;;;;27.67;57.36;98434.19;2085099;28;20464;-57
2022/09/08 04:17:08;;;;;;;8.48;2.95;;;;;;;27.66;57.35;98446.16;2085071;28;20415;-58
2022/09/08 04:18:10;;;;;;;6.07;2.78;;;;;;;27.66;57.10;98435.28;2085519;28;20159;-52
2022/09/08 04:19:14;;;;;;;4.78;3.25;;;;;;;27.68;57.11;98433.09;2087039;28;20171;-54
2022/09/08 04:20:18;;;;;;;8.55;3.72;;;;;;;27.67;57.27;98430.66;2095834;27;20056;-55
2022/09/08 04:21:19;;;;;;;5.25;2.72;;;;;;;27.67;57.36;98428.75;2086847;28;20045;-55
2022/09/08 04:22:22;;;;;;;7.90;2.70;;;;;;;27.65;57.41;98422.75;2095758;28;20590;-50
2022/09/08 04:23:22;;;;;;;9.43;3.20;;;;;;;27.65;57.59;98425.47;2098864;28;20091;-56
2022/09/08 04:24:24;;;;;;;8.10;2.92;;;;;;;27.64;57.25;98429.28;2094537;28;20512;-52
2022/09/08 04:25:25;;;;;;;9.43;3.45;;;;;;;27.62;57.67;98429.53;2089851;28;20752;-53
2022/09/08 04:26:27;;;;;;;5.97;2.97;;;;;;;27.66;57.90;98435.28;2089152;28;20105;-50
2022/09/08 04:27:28;;;;;;;8.25;3.40;;;;;;;27.64;57.64;98434.75;2089177;28;20528;-49
2022/09/08 04:28:31;;;;;;;6.85;3.35;;;;;;;27.64;57.81;98442.91;2092030;28;20059;-55
2022/09/08 04:29:33;;;;;;;12.70;3.08;;;;;;;27.63;57.53;98443.97;2094818;28;20044;-47
2022/09/08 04:30:39;;;;;;;6.32;3.00;;;;;;;27.68;57.42;98448.63;2091257;28;21027;-52
2022/09/08 04:31:40;;;;;;;10.63;2.67;;;;;;;27.68;57.41;98451.38;2089476;28;20048;-53
2022/09/08 04:32:42;;;;;;;13.95;3.08;;;;;;;27.65;57.50;98441.81;2091236;28;20044;-54
2022/09/08 04:33:44;;;;;;;6.38;2.90;;;;;;;27.66;57.55;98438.00;2095343;28;20036;-52
2022/09/08 04:34:49;;;;;;;5.35;2.70;;;;;;;27.65;57.56;98430.91;2097977;28;20082;-54
2022/09/08 04:35:50;;;;;;;8.00;3.45;;;;;;;27.64;57.58;98434.75;2095275;28;20907;-53
2022/09/08 04:36:52;;;;;;;6.20;2.83;;;;;;;27.65;57.68;98432.81;2097941;28;20063;-52
2022/09/08 04:37:53;;;;;;;6.22;4.18;;;;;;;27.62;57.84;98420.56;2097238;28;20055;-54
2022/09/08 04:38:55;;;;;;;8.65;3.88;;;;;;;27.63;58.19;98422.19;2091763;28;20124;-48
2022/09/08 04:39:56;;;;;;;8.63;3.60;;;;;;;27.61;58.08;98421.66;2087233;28;20110;-57
2022/09/08 04:41:03;;;;;;;7.50;3.65;;;;;;;27.60;58.02;98422.72;2086764;28;20138;-49
2022/09/08 04:42:06;;;;;;;7.15;3.25;;;;;;;27.58;58.07;98414.84;2090088;28;20067;-51
2022/09/08 04:43:07;;;;;;;14.07;4.28;;;;;;;27.59;58.18;98408.28;2094591;28;20082;-56
2022/09/08 04:44:10;;;;;;;8.00;3.03;;;;;;;27.60;58.20;98400.94;2087829;28;20096;-50
2022/09/08 04:45:11;;;;;;;10.88;4.10;;;;;;;27.61;58.08;98402.59;2084935;28;20045;-60
2022/09/08 04:46:14;;;;;;;8.35;3.55;;;;;;;27.60;58.06;98400.94;2096231;28;20046;-52
2022/09/08 04:47:15;;;;;;;8.50;3.38;;;;;;;27.59;58.45;98402.03;2094805;28;20045;-53
2022/09/08 04:48:17;;;;;;;6.82;4.13;;;;;;;27.61;57.85;98397.94;2091519;28;20114;-52
2022/09/08 04:49:19;;;;;;;10.68;3.38;;;;;;;27.61;58.27;98399.88;2094950;28;20105;-49
2022/09/08 04:50:20;;;;;;;11.63;3.13;;;;;;;27.60;58.24;98395.47;2087203;28;20049;-51
2022/09/08 04:51:21;;;;;;;8.65;3.60;;;;;;;27.61;57.84;98386.25;2088657;28;20048;-50
2022/09/08 04:52:25;;;;;;;8.80;2.88;;;;;;;27.60;58.01;98387.31;2094967;28;20434;-55
2022/09/08 04:53:27;;;;;;;10.95;3.88;;;;;;;27.61;58.05;98384.31;2097144;28;20067;-56
2022/09/08 04:54:28;;;;;;;8.32;2.75;;;;;;;27.59;58.08;98382.97;2093346;28;20106;-54
2022/09/08 04:55:29;;;;;;;11.82;4.32;;;;;;;27.58;57.91;98379.41;2086709;28;20453;-54
2022/09/08 04:56:31;;;;;;;11.20;3.85;;;;;;;27.59;57.88;98380.22;2086811;28;20044;-52
2022/09/08 04:57:33;;;;;;;10.73;3.53;;;;;;;27.59;57.92;98364.69;2086560;28;20539;-57
2022/09/08 04:58:37;;;;;;;11.05;3.95;;;;;;;27.61;57.90;98375.34;2088055;28;20045;-56
2022/09/08 04:59:38;;;;;;;13.45;6.25;;;;;;;27.59;58.05;98367.44;2085913;28;20045;-55